Mont Saint Michel — FNMT — position and weather

sailwx.info

Track history (hours):
 
Tides and Currents Weather Stations Pressure Air Temp Water Temp Dewpoint Dewpoint Depression Visibility Wind Speed Wind Dir Waves Ship Positions

Mont Saint Michel

Last reported at 2018-Oct-20 13:31 UTC. Time now 2018-Oct-20 13:41 UTC.
Position N 50°49' W 001°06'.

Length 173 m; beam 29 m.

Type: Ship. MMSI: 227023100.

Date/timePositionNaut miles runAvg speedWind from/ knotsBaromVisibWave heightAir tempDewpointWater temp
2018-Oct-20 13:31N 50°49' W 001°06'0 0.0
2018-Oct-20 13:04N 50°49' W 001°06'0 0.0
2018-Oct-20 13:00N 50°49' W 001°06'0 0.0
2018-Oct-20 12:30N 50°49' W 001°06'0 0.6
2018-Oct-20 12:03N 50°49' W 001°06'0 8.2
2018-Oct-20 12:00N 50°48' W 001°07'713.2
2018-Oct-20 11:31N 50°43' W 001°02'818.1
2018-Oct-20 11:04N 50°35' W 000°57'119.9
2018-Oct-20 11:01N 50°34' W 000°56'1019.7
2018-Oct-20 10:31N 50°25' W 000°51'919.9
2018-Oct-20 10:03N 50°17' W 000°44'120.1
2018-Oct-20 10:01N 50°16' W 000°44'1020.0
2018-Oct-20 09:30N 50°07' W 000°37'919.8
2018-Oct-20 09:03N 49°59' W 000°32'119.6
2018-Oct-20 09:00N 49°58' W 000°32'1019.5
2018-Oct-20 08:31N 49°49' W 000°26'1021.4
2018-Oct-20 08:03N 49°40' W 000°21'121.3
2018-Oct-20 08:00N 49°39' W 000°21'1020.8
2018-Oct-20 07:30N 49°28' W 000°17'920.0
2018-Oct-20 07:04N 49°20' W 000°14'118.1
2018-Oct-20 07:00N 49°19' W 000°15'1 2.8
2018-Oct-20 06:30N 49°17' W 000°15'0 0.0
2018-Oct-20 06:03N 49°17' W 000°15'0 0.0
2018-Oct-20 06:00N 49°17' W 000°15'0 0.0
2018-Oct-20 05:30N 49°17' W 000°15'0 0.0
2018-Oct-20 05:03N 49°17' W 000°15'0 0.0
2018-Oct-20 05:00N 49°17' W 000°15'0 0.2
2018-Oct-20 04:30N 49°17' W 000°15'614.4
2018-Oct-20 04:03N 49°24' W 000°14'115.7
2018-Oct-20 04:00N 49°24' W 000°15'815.7
2018-Oct-20 03:30N 49°30' W 000°23'715.2
2018-Oct-20 03:03N 49°36' W 000°29'115.1
2018-Oct-20 03:00N 49°37' W 000°29'713.7
2018-Oct-20 02:30N 49°43' W 000°32'511.9
2018-Oct-20 02:03N 49°49' W 000°34'111.8
2018-Oct-20 02:00N 49°49' W 000°35'714.4
2018-Oct-20 01:30N 49°56' W 000°38'715.5
2018-Oct-20 01:03N 50°03' W 000°42'115.8
2018-Oct-20 01:00N 50°03' W 000°42'1716.0
2018-Oct-19 23:58N 50°19' W 000°49'816.3
2018-Oct-19 23:30N 50°27' W 000°52'716.0
2018-Oct-19 23:03N 50°33' W 000°56'116.0
2018-Oct-19 23:00N 50°34' W 000°56'816.4
2018-Oct-19 22:30N 50°42' W 001°01'613.7
2018-Oct-19 22:03N 50°47' W 001°06'110.3
2018-Oct-19 22:00N 50°47' W 001°07'1 2.8
2018-Oct-19 21:30N 50°49' W 001°06'0 0.0
2018-Oct-19 21:03N 50°49' W 001°06'0 0.1
2018-Oct-19 21:00N 50°49' W 001°06'0 0.0
2018-Oct-19 20:31N 50°49' W 001°06'0 0.2
2018-Oct-19 20:03N 50°49' W 001°06'0 3.9
2018-Oct-19 20:00N 50°49' W 001°06'510.2
2018-Oct-19 19:31N 50°44' W 001°03'817.5
2018-Oct-19 19:03N 50°37' W 000°59'118.7
2018-Oct-19 19:00N 50°36' W 000°58'918.6
2018-Oct-19 18:31N 50°27' W 000°53'918.8
2018-Oct-19 18:03N 50°19' W 000°47'118.9
2018-Oct-19 18:00N 50°18' W 000°47'918.8
2018-Oct-19 17:30N 50°09' W 000°42'818.7
2018-Oct-19 17:03N 50°01' W 000°38'118.7
2018-Oct-19 17:00N 50°01' W 000°38'918.7
2018-Oct-19 16:30N 49°51' W 000°34'919.1
2018-Oct-19 16:03N 49°43' W 000°33'120.7
2018-Oct-19 16:01N 49°42' W 000°33'1019.9
2018-Oct-19 15:30N 49°33' W 000°26'920.3
2018-Oct-19 15:03N 49°26' W 000°18'119.9
2018-Oct-19 15:01N 49°25' W 000°17'8 7.9
2018-Oct-19 14:03N 49°17' W 000°15'0 0.0
2018-Oct-19 13:30N 49°17' W 000°15'0 0.0
2018-Oct-19 13:03N 49°17' W 000°15'0 0.0
2018-Oct-19 13:00N 49°17' W 000°15'3 5.1
2018-Oct-19 12:30N 49°20' W 000°14'817.3
2018-Oct-19 12:03N 49°27' W 000°18'118.8
2018-Oct-19 12:00N 49°28' W 000°18'918.5
2018-Oct-19 11:30N 49°37' W 000°22'818.5
2018-Oct-19 11:03N 49°45' W 000°26'118.5
2018-Oct-19 11:00N 49°46' W 000°27'918.6
2018-Oct-19 10:30N 49°55' W 000°31'818.5
2018-Oct-19 10:03N 50°03' W 000°35'118.3
2018-Oct-19 10:00N 50°04' W 000°35'918.5
2018-Oct-19 09:30N 50°13' W 000°39'1218.6
2018-Oct-19 08:53N 50°23' W 000°45'718.6
2018-Oct-19 08:30N 50°30' W 000°51'918.9
2018-Oct-19 08:03N 50°37' W 000°57'119.0
2018-Oct-19 08:00N 50°38' W 000°58'917.5
2018-Oct-19 07:30N 50°45' W 001°05'3 7.7
2018-Oct-19 07:03N 50°49' W 001°06'0 0.0
2018-Oct-19 07:00N 50°49' W 001°06'0 0.0
2018-Oct-19 06:30N 50°49' W 001°06'0 0.0
2018-Oct-19 06:03N 50°49' W 001°06'0 0.0
2018-Oct-19 06:00N 50°49' W 001°06'0 0.2
2018-Oct-19 05:30N 50°49' W 001°06'3 7.5
2018-Oct-19 05:04N 50°45' W 001°05'115.1
2018-Oct-19 05:01N 50°45' W 001°05'713.7
2018-Oct-19 04:31N 50°39' W 000°59'613.3
2018-Oct-19 04:03N 50°33' W 000°56'110.7
2018-Oct-19 04:00N 50°33' W 000°55'510.7
2018-Oct-19 03:30N 50°28' W 000°53'510.9
2018-Oct-19 03:03N 50°23' W 000°52'111.0
2018-Oct-19 03:00N 50°22' W 000°52'610.9
2018-Oct-19 02:29N 50°17' W 000°50'510.9
2018-Oct-19 02:02N 50°12' W 000°47'011.0
2018-Oct-19 02:00N 50°12' W 000°47'510.8
2018-Oct-19 01:30N 50°07' W 000°44'511.0
2018-Oct-19 01:02N 50°02' W 000°41'011.0
2018-Oct-19 00:59N 50°01' W 000°41'613.1
2018-Oct-19 00:30N 49°56' W 000°37'715.1
2018-Oct-19 00:04N 49°49' W 000°34'115.2
2018-Oct-19 00:00N 49°48' W 000°33'815.3
2018-Oct-18 23:30N 49°41' W 000°29'715.3
2018-Oct-18 23:03N 49°35' W 000°25'115.4
2018-Oct-18 23:00N 49°34' W 000°24'815.2
2018-Oct-18 22:31N 49°27' W 000°19'715.3
2018-Oct-18 22:03N 49°21' W 000°15'115.1
2018-Oct-18 22:01N 49°20' W 000°15'3 6.2
2018-Oct-18 21:30N 49°17' W 000°15'0 0.0
2018-Oct-18 21:03N 49°17' W 000°15'0 0.0
2018-Oct-18 21:00N 49°17' W 000°15'0 0.0
2018-Oct-18 20:30N 49°17' W 000°15'0 0.0
2018-Oct-18 20:03N 49°17' W 000°15'0 0.0
2018-Oct-18 20:00N 49°17' W 000°15'0 0.0
2018-Oct-18 19:30N 49°17' W 000°15'2 5.1
2018-Oct-18 19:04N 49°20' W 000°14'119.4
2018-Oct-18 19:01N 49°21' W 000°14'816.7
2018-Oct-18 18:31N 49°29' W 000°17'715.9
2018-Oct-18 18:03N 49°36' W 000°20'115.9
2018-Oct-18 18:01N 49°36' W 000°20'816.9
2018-Oct-18 17:31N 49°44' W 000°25'919.5
2018-Oct-18 17:04N 49°52' W 000°32'119.5
2018-Oct-18 17:01N 49°53' W 000°33'1019.5
2018-Oct-18 16:30N 50°01' W 000°41'919.5
2018-Oct-18 16:02N 50°09' W 000°49'119.5
2018-Oct-18 15:59N 50°09' W 000°49'1019.5
2018-Oct-18 15:29N 50°18' W 000°57'819.4
2018-Oct-18 15:03N 50°27' W 000°57'119.4
2018-Oct-18 15:01N 50°27' W 000°57'1019.2
2018-Oct-18 14:30N 50°37' W 000°59'816.9
2018-Oct-18 14:01N 50°45' W 001°05'4 8.4
2018-Oct-18 13:31N 50°49' W 001°06'0 0.0
2018-Oct-18 13:03N 50°49' W 001°06'0 0.0
2018-Oct-18 13:00N 50°49' W 001°06'0 0.0
2018-Oct-18 12:31N 50°49' W 001°06'1 1.4
2018-Oct-18 12:03N 50°48' W 001°07'0 9.4
2018-Oct-18 12:00N 50°48' W 001°07'714.4
2018-Oct-18 11:30N 50°43' W 000°60'919.3
2018-Oct-18 11:03N 50°34' W 000°55'120.4
2018-Oct-18 11:00N 50°33' W 000°55'1020.7
2018-Oct-18 10:30N 50°24' W 000°49'921.0
2018-Oct-18 10:03N 50°15' W 000°44'121.3
2018-Oct-18 10:00N 50°14' W 000°44'919.2
2018-Oct-18 09:30N 50°05' W 000°39'919.4
2018-Oct-18 09:03N 49°56' W 000°34'119.3
2018-Oct-18 09:00N 49°56' W 000°34'1019.2
2018-Oct-18 08:30N 49°46' W 000°29'919.4
2018-Oct-18 08:03N 49°38' W 000°24'119.2
2018-Oct-18 08:00N 49°37' W 000°23'1019.9
2018-Oct-18 07:30N 49°28' W 000°18'920.2
2018-Oct-18 07:03N 49°19' W 000°15'115.3
2018-Oct-18 07:00N 49°19' W 000°15'1 2.3
2018-Oct-18 06:30N 49°17' W 000°15'0 0.0
2018-Oct-18 06:03N 49°17' W 000°15'0 0.0
2018-Oct-18 06:00N 49°17' W 000°15'0 0.0
2018-Oct-18 05:30N 49°17' W 000°15'0 0.0
2018-Oct-18 05:03N 49°17' W 000°15'0 0.0
2018-Oct-18 05:00N 49°17' W 000°15'0 0.2
2018-Oct-18 04:31N 49°17' W 000°15'612.4
2018-Oct-18 04:04N 49°23' W 000°15'111.5
2018-Oct-18 04:00N 49°23' W 000°15'611.5
2018-Oct-18 03:30N 49°28' W 000°20'511.2
2018-Oct-18 03:04N 49°32' W 000°24'111.3
2018-Oct-18 03:00N 49°33' W 000°24'611.2
2018-Oct-18 02:30N 49°38' W 000°28'511.4
2018-Oct-18 02:03N 49°43' W 000°31'111.6
2018-Oct-18 02:00N 49°43' W 000°32'713.4
2018-Oct-18 01:31N 49°49' W 000°35'715.7
2018-Oct-18 01:04N 49°56' W 000°39'115.7
2018-Oct-18 01:00N 49°57' W 000°39'815.8
2018-Oct-18 00:30N 50°04' W 000°43'815.8
2018-Oct-17 23:59N 50°12' W 000°48'1015.9
2018-Oct-17 23:20N 50°22' W 000°51'416.0
2018-Oct-17 23:03N 50°27' W 000°53'116.0
2018-Oct-17 23:01N 50°27' W 000°53'815.6
2018-Oct-17 22:31N 50°35' W 000°56'714.8
2018-Oct-17 22:03N 50°41' W 000°59'110.8
2018-Oct-17 22:00N 50°42' W 000°60'510.8
2018-Oct-17 21:30N 50°46' W 001°05'3 6.7
2018-Oct-17 21:03N 50°49' W 001°06'0 0.0
2018-Oct-17 21:00N 50°49' W 001°06'0 0.0
2018-Oct-17 20:31N 50°49' W 001°06'0 0.0
2018-Oct-17 20:03N 50°49' W 001°06'0 0.0
2018-Oct-17 20:00N 50°49' W 001°06'0 0.0
2018-Oct-17 19:31N 50°49' W 001°06'0 0.0
2018-Oct-17 19:03N 50°49' W 001°06'0 0.0
2018-Oct-17 19:00N 50°49' W 001°06'0 0.0
2018-Oct-17 18:30N 50°49' W 001°06'0 0.9
2018-Oct-17 18:03N 50°49' W 001°06'0 8.1
2018-Oct-17 18:01N 50°48' W 001°07'612.5
2018-Oct-17 17:30N 50°43' W 001°03'715.4
2018-Oct-17 17:03N 50°36' W 000°58'116.0
2018-Oct-17 17:00N 50°36' W 000°58'816.2
2018-Oct-17 16:30N 50°28' W 000°55'716.4
2018-Oct-17 16:03N 50°21' W 000°51'117.8
2018-Oct-17 16:00N 50°20' W 000°50'917.7
2018-Oct-17 15:30N 50°12' W 000°45'817.7
2018-Oct-17 15:03N 50°04' W 000°41'117.8
2018-Oct-17 15:00N 50°03' W 000°41'1817.7
2018-Oct-17 14:00N 49°47' W 000°32'917.9
2018-Oct-17 13:30N 49°39' W 000°25'818.4
2018-Oct-17 13:03N 49°31' W 000°20'117.7
2018-Oct-17 13:00N 49°31' W 000°19'917.7
2018-Oct-17 12:30N 49°22' W 000°15'510.9
2018-Oct-17 12:03N 49°17' W 000°15'0 0.0
2018-Oct-17 12:00N 49°17' W 000°15'0 0.0
2018-Oct-17 11:30N 49°17' W 000°15'0 0.0
2018-Oct-17 11:03N 49°17' W 000°15'0 0.0
2018-Oct-17 11:00N 49°17' W 000°15'0 0.0
2018-Oct-17 10:31N 49°17' W 000°15'0 0.0
2018-Oct-17 10:03N 49°17' W 000°15'0 0.0
2018-Oct-17 10:00N 49°17' W 000°15'0 0.0
2018-Oct-17 09:31N 49°17' W 000°15'0 0.0
2018-Oct-17 09:03N 49°17' W 000°15'0 0.0
2018-Oct-17 09:00N 49°17' W 000°15'0 0.1
2018-Oct-17 08:30N 49°17' W 000°15'0 0.0
2018-Oct-17 08:03N 49°17' W 000°15'0 0.0
2018-Oct-17 08:00N 49°17' W 000°15'0 0.0
2018-Oct-17 07:30N 49°17' W 000°15'0 0.0
2018-Oct-17 07:03N 49°17' W 000°15'0 0.0
2018-Oct-17 07:00N 49°17' W 000°15'0 0.0
2018-Oct-17 06:30N 49°17' W 000°15'0 0.1
2018-Oct-17 06:03N 49°17' W 000°15'0 0.0
2018-Oct-17 06:00N 49°17' W 000°15'0 0.0
2018-Oct-17 05:31N 49°17' W 000°15'1 3.1
2018-Oct-17 05:04N 49°19' W 000°15'116.7
2018-Oct-17 05:00N 49°20' W 000°14'815.8
2018-Oct-17 04:31N 49°27' W 000°19'614.4
2018-Oct-17 04:03N 49°33' W 000°22'111.8
2018-Oct-17 04:00N 49°34' W 000°22'612.1
2018-Oct-17 03:30N 49°39' W 000°25'612.4
2018-Oct-17 03:03N 49°45' W 000°29'112.6
2018-Oct-17 03:00N 49°45' W 000°29'612.5
2018-Oct-17 02:30N 49°51' W 000°33'614.8
2018-Oct-17 02:03N 49°57' W 000°38'115.5
2018-Oct-17 02:00N 49°57' W 000°38'815.3
2018-Oct-17 01:30N 50°04' W 000°43'715.0
2018-Oct-17 01:03N 50°11' W 000°47'814.6
2018-Oct-17 00:28N 50°19' W 000°49'614.6
2018-Oct-17 00:03N 50°25' W 000°52'114.8
2018-Oct-17 00:00N 50°26' W 000°53'714.9
2018-Oct-16 23:30N 50°33' W 000°56'714.8
2018-Oct-16 23:03N 50°39' W 000°58'114.9
2018-Oct-16 23:00N 50°40' W 000°58'714.5
2018-Oct-16 22:30N 50°46' W 001°05'3 6.9
2018-Oct-16 22:03N 50°49' W 001°06'0 0.0
2018-Oct-16 22:00N 50°49' W 001°06'0 0.0
2018-Oct-16 21:30N 50°49' W 001°06'0 0.0
2018-Oct-16 21:03N 50°49' W 001°06'0 0.0
2018-Oct-16 21:00N 50°49' W 001°06'0 0.0
2018-Oct-16 20:30N 50°49' W 001°06'0 0.2
2018-Oct-16 20:04N 50°49' W 001°06'0 0.3
2018-Oct-16 20:00N 50°49' W 001°06'4 9.0
2018-Oct-16 19:30N 50°44' W 001°04'716.3
2018-Oct-16 19:03N 50°38' W 000°58'117.6
2018-Oct-16 19:00N 50°37' W 000°57'917.7
2018-Oct-16 18:30N 50°29' W 000°52'817.4
2018-Oct-16 18:02N 50°22' W 000°48'118.5
2018-Oct-16 18:00N 50°21' W 000°47'918.7
2018-Oct-16 17:30N 50°12' W 000°42'818.6
2018-Oct-16 17:03N 50°04' W 000°39'118.9
2018-Oct-16 17:00N 50°03' W 000°39'1019.2
2018-Oct-16 16:30N 49°54' W 000°35'1020.8
2018-Oct-16 16:02N 49°45' W 000°29'021.2
2018-Oct-16 16:00N 49°44' W 000°29'1121.1
2018-Oct-16 15:30N 49°35' W 000°23'920.9
2018-Oct-16 15:03N 49°26' W 000°17'120.2
2018-Oct-16 15:00N 49°25' W 000°16'815.3
2018-Oct-16 14:30N 49°17' W 000°15'0 0.0
2018-Oct-16 14:00N 49°17' W 000°15'0 0.0
2018-Oct-16 13:30N 49°17' W 000°15'0 0.0
2018-Oct-16 13:03N 49°17' W 000°15'0 0.0
2018-Oct-16 13:00N 49°17' W 000°15'1 2.3
2018-Oct-16 12:30N 49°18' W 000°15'818.6
2018-Oct-16 12:03N 49°27' W 000°17'119.6
2018-Oct-16 12:00N 49°28' W 000°17'1019.0
2018-Oct-16 11:30N 49°37' W 000°21'919.3
2018-Oct-16 11:03N 49°45' W 000°25'119.4
2018-Oct-16 11:00N 49°46' W 000°26'1019.4
2018-Oct-16 10:30N 49°55' W 000°33'919.0
2018-Oct-16 10:03N 50°02' W 000°38'118.7
2018-Oct-16 10:00N 50°03' W 000°39'918.9
2018-Oct-16 09:30N 50°12' W 000°44'1018.7
2018-Oct-16 09:00N 50°21' W 000°48'918.5
2018-Oct-16 08:30N 50°29' W 000°54'919.6
2018-Oct-16 08:03N 50°38' W 000°59'119.9
2018-Oct-16 08:00N 50°39' W 000°59'816.4
2018-Oct-16 07:30N 50°46' W 001°05'3 6.2
2018-Oct-16 07:03N 50°49' W 001°06'0 0.0
2018-Oct-16 07:00N 50°49' W 001°06'0 0.0
2018-Oct-16 06:30N 50°49' W 001°06'0 0.0
2018-Oct-16 06:03N 50°49' W 001°06'0 0.0
2018-Oct-16 06:00N 50°49' W 001°06'0 0.3
2018-Oct-16 05:31N 50°49' W 001°06'4 9.9
2018-Oct-16 05:03N 50°44' W 001°04'120.9
2018-Oct-16 05:00N 50°44' W 001°03'917.2
2018-Oct-16 04:30N 50°36' W 000°58'511.8
2018-Oct-16 04:03N 50°31' W 000°55'111.8
2018-Oct-16 04:00N 50°30' W 000°55'611.8
2018-Oct-16 03:31N 50°25' W 000°51'511.9
2018-Oct-16 03:03N 50°20' W 000°48'112.0
2018-Oct-16 03:00N 50°19' W 000°48'611.8
2018-Oct-16 02:30N 50°14' W 000°44'511.6
2018-Oct-16 02:03N 50°09' W 000°41'111.5
2018-Oct-16 02:00N 50°09' W 000°40'611.5
2018-Oct-16 01:30N 50°03' W 000°37'511.4
2018-Oct-16 01:03N 49°59' W 000°34'111.7
2018-Oct-16 01:01N 49°58' W 000°34'611.3
2018-Oct-16 00:30N 49°53' W 000°31'511.1
2018-Oct-16 00:03N 49°48' W 000°29'111.2
2018-Oct-16 00:00N 49°47' W 000°28'611.3
2018-Oct-15 23:30N 49°42' W 000°26'511.4
2018-Oct-15 23:03N 49°37' W 000°24'111.3
2018-Oct-15 23:00N 49°36' W 000°24'611.5
2018-Oct-15 22:30N 49°31' W 000°20'511.2
2018-Oct-15 22:03N 49°27' W 000°17'111.2
2018-Oct-15 22:00N 49°26' W 000°17'611.1
2018-Oct-15 21:30N 49°21' W 000°14'3 7.4
2018-Oct-15 21:03N 49°17' W 000°15'0 0.0
2018-Oct-15 21:00N 49°17' W 000°15'0 0.0
2018-Oct-15 20:30N 49°17' W 000°15'0 0.0
2018-Oct-15 20:03N 49°17' W 000°15'0 0.0
2018-Oct-15 20:00N 49°17' W 000°15'0 0.0
2018-Oct-15 19:30N 49°17' W 000°15'2 3.6
2018-Oct-15 19:03N 49°19' W 000°15'116.7
2018-Oct-15 19:00N 49°20' W 000°14'918.1
2018-Oct-15 18:30N 49°29' W 000°17'817.8
2018-Oct-15 18:03N 49°36' W 000°22'117.6
2018-Oct-15 18:00N 49°37' W 000°23'917.6
2018-Oct-15 17:30N 49°45' W 000°28'817.9
2018-Oct-15 17:03N 49°52' W 000°33'118.0
2018-Oct-15 17:00N 49°53' W 000°34'918.2
2018-Oct-15 16:30N 50°01' W 000°39'818.3
2018-Oct-15 16:04N 50°09' W 000°44'118.5
2018-Oct-15 16:00N 50°10' W 000°45'918.5
2018-Oct-15 15:30N 50°19' W 000°49'918.9
2018-Oct-15 15:03N 50°27' W 000°51'118.8
2018-Oct-15 15:00N 50°28' W 000°52'918.7
2018-Oct-15 14:31N 50°37' W 000°57'918.3
2018-Oct-15 14:00N 50°45' W 001°05'4 8.4
2018-Oct-15 13:30N 50°49' W 001°06'0 0.0
2018-Oct-15 13:03N 50°49' W 001°06'0 0.0
2018-Oct-15 13:00N 50°49' W 001°06'0 0.0
2018-Oct-15 12:30N 50°49' W 001°06'0 0.2
2018-Oct-15 12:03N 50°49' W 001°06'0 2.9
2018-Oct-15 12:01N 50°49' W 001°06'611.7
2018-Oct-15 11:30N 50°43' W 001°02'817.9
2018-Oct-15 11:03N 50°36' W 000°59'116.4
2018-Oct-15 11:00N 50°35' W 000°59'815.9
2018-Oct-15 10:30N 50°27' W 000°55'817.1
2018-Oct-15 10:01N 50°19' W 000°52'018.5
2018-Oct-15 10:00N 50°19' W 000°52'919.0
2018-Oct-15 09:30N 50°10' W 000°48'919.1
2018-Oct-15 09:03N 50°02' W 000°44'119.3
2018-Oct-15 09:00N 50°01' W 000°43'1019.6
2018-Oct-15 08:30N 49°52' W 000°37'920.9
2018-Oct-15 08:03N 49°43' W 000°31'121.2
2018-Oct-15 08:00N 49°42' W 000°30'1121.1
2018-Oct-15 07:30N 49°33' W 000°23'1021.1
2018-Oct-15 07:03N 49°24' W 000°17'120.7
2018-Oct-15 07:00N 49°23' W 000°16'612.1
2018-Oct-15 06:30N 49°17' W 000°15'0 0.0
2018-Oct-15 06:03N 49°17' W 000°15'0 0.0
2018-Oct-15 06:00N 49°17' W 000°15'0 0.0
2018-Oct-15 05:30N 49°17' W 000°15'0 0.0
2018-Oct-15 05:03N 49°17' W 000°15'0 0.0
2018-Oct-15 05:00N 49°17' W 000°15'0 0.3
2018-Oct-15 04:30N 49°17' W 000°15'614.0
2018-Oct-15 04:04N 49°23' W 000°14'114.8
2018-Oct-15 04:01N 49°24' W 000°14'714.3
2018-Oct-15 03:31N 49°31' W 000°18'614.1
2018-Oct-15 03:04N 49°37' W 000°22'114.0
2018-Oct-15 03:01N 49°37' W 000°22'714.2
2018-Oct-15 02:31N 49°44' W 000°26'714.6
2018-Oct-15 02:04N 49°50' W 000°30'114.8
2018-Oct-15 02:01N 49°51' W 000°30'815.0
2018-Oct-15 01:31N 49°58' W 000°35'715.2
2018-Oct-15 01:03N 50°04' W 000°38'115.4
2018-Oct-15 01:00N 50°05' W 000°39'815.2
2018-Oct-15 00:30N 50°12' W 000°43'815.3
2018-Oct-15 00:01N 50°19' W 000°47'013.6
2018-Oct-15 00:01N 50°19' W 000°47'815.1
2018-Oct-14 23:28N 50°27' W 000°52'715.9
2018-Oct-14 23:04N 50°33' W 000°56'115.9
2018-Oct-14 23:01N 50°34' W 000°56'815.8
2018-Oct-14 22:31N 50°42' W 000°58'613.3
2018-Oct-14 22:04N 50°45' W 001°05'114.4
2018-Oct-14 22:00N 50°46' W 001°05'3 5.1
2018-Oct-14 21:30N 50°49' W 001°06'0 0.0
2018-Oct-14 21:03N 50°49' W 001°06'0 0.0
2018-Oct-14 21:00N 50°49' W 001°06'0 0.0
2018-Oct-14 20:30N 50°49' W 001°06'0 0.2
2018-Oct-14 20:03N 50°49' W 001°06'0 3.4
2018-Oct-14 20:01N 50°49' W 001°06'612.1
2018-Oct-14 19:30N 50°43' W 001°02'817.7
2018-Oct-14 19:03N 50°36' W 000°57'120.5
2018-Oct-14 19:00N 50°35' W 000°56'1020.4
2018-Oct-14 18:30N 50°25' W 000°51'1117.5
2018-Oct-14 17:52N 50°14' W 000°48'617.4
2018-Oct-14 17:30N 50°08' W 000°45'818.6
2018-Oct-14 17:03N 50°01' W 000°39'118.8
2018-Oct-14 17:00N 50°00' W 000°38'918.9
2018-Oct-14 16:30N 49°52' W 000°32'919.1
2018-Oct-14 16:03N 49°44' W 000°27'119.4
2018-Oct-14 16:00N 49°43' W 000°27'1019.1
2018-Oct-14 15:30N 49°34' W 000°22'818.8
2018-Oct-14 15:03N 49°26' W 000°17'119.2
2018-Oct-14 15:00N 49°25' W 000°16'815.5
2018-Oct-14 14:30N 49°17' W 000°15'0 0.1
2018-Oct-14 14:00N 49°17' W 000°15'0 0.0
2018-Oct-14 13:30N 49°17' W 000°15'0 0.0
2018-Oct-14 13:03N 49°17' W 000°15'0 0.0
2018-Oct-14 13:00N 49°17' W 000°15'3 6.5
2018-Oct-14 12:30N 49°21' W 000°14'920.7
2018-Oct-14 12:04N 49°30' W 000°18'119.7
2018-Oct-14 12:01N 49°30' W 000°18'1019.5
2018-Oct-14 11:31N 49°39' W 000°24'817.3
2018-Oct-14 11:04N 49°47' W 000°28'117.4
2018-Oct-14 11:00N 49°48' W 000°29'917.9
2018-Oct-14 10:31N 49°56' W 000°34'817.6
2018-Oct-14 10:03N 50°03' W 000°40'117.4
2018-Oct-14 10:00N 50°04' W 000°40'1019.2
2018-Oct-14 09:31N 50°12' W 000°47'1020.0
2018-Oct-14 09:02N 50°21' W 000°53'119.7
2018-Oct-14 08:59N 50°22' W 000°53'919.5
2018-Oct-14 08:31N 50°31' W 000°56'919.3
2018-Oct-14 08:04N 50°40' W 000°58'118.5
2018-Oct-14 08:01N 50°41' W 000°58'816.1
2018-Oct-14 07:31N 50°47' W 001°06'2 4.1
2018-Oct-14 07:03N 50°49' W 001°06'0 0.0
2018-Oct-14 07:01N 50°49' W 001°06'0 0.0
2018-Oct-14 06:30N 50°49' W 001°06'0 0.0
2018-Oct-14 06:03N 50°49' W 001°06'0 0.0
2018-Oct-14 06:00N 50°49' W 001°06'0 0.4
2018-Oct-14 05:31N 50°49' W 001°06'511.1
2018-Oct-14 05:03N 50°44' W 001°04'118.3
2018-Oct-14 05:00N 50°44' W 001°02'917.2
2018-Oct-14 04:30N 50°36' W 000°57'613.3
2018-Oct-14 04:03N 50°30' W 000°55'111.1
2018-Oct-14 04:00N 50°29' W 000°54'611.2
2018-Oct-14 03:30N 50°24' W 000°51'511.4
2018-Oct-14 03:03N 50°19' W 000°49'111.4
2018-Oct-14 02:58N 50°18' W 000°48'511.4
2018-Oct-14 02:30N 50°13' W 000°45'511.1
2018-Oct-14 02:03N 50°09' W 000°42'111.0
2018-Oct-14 02:00N 50°08' W 000°42'510.8
2018-Oct-14 01:30N 50°03' W 000°38'510.2
2018-Oct-14 01:03N 49°59' W 000°35'0 9.8
2018-Oct-14 01:00N 49°59' W 000°35'5 9.4
2018-Oct-14 00:30N 49°54' W 000°32'4 9.8
2018-Oct-14 00:03N 49°50' W 000°29'110.4
2018-Oct-14 00:00N 49°50' W 000°29'510.6
2018-Oct-13 23:30N 49°45' W 000°26'510.8
2018-Oct-13 23:03N 49°40' W 000°24'110.9
2018-Oct-13 23:00N 49°40' W 000°23'510.9
2018-Oct-13 22:30N 49°35' W 000°21'510.9
2018-Oct-13 22:03N 49°30' W 000°18'110.8
2018-Oct-13 22:00N 49°29' W 000°18'611.2
2018-Oct-13 21:30N 49°24' W 000°15'510.3
2018-Oct-13 21:03N 49°20' W 000°14'111.0
2018-Oct-13 21:00N 49°19' W 000°15'2 3.4
2018-Oct-13 20:30N 49°17' W 000°15'0 0.0
2018-Oct-13 20:03N 49°17' W 000°15'0 0.0
2018-Oct-13 20:00N 49°17' W 000°15'0 0.0
2018-Oct-13 19:30N 49°17' W 000°15'3 6.2
2018-Oct-13 19:03N 49°20' W 000°14'118.1
2018-Oct-13 19:00N 49°21' W 000°14'1019.1
2018-Oct-13 18:31N 49°30' W 000°21'817.8
2018-Oct-13 18:04N 49°37' W 000°25'117.9
2018-Oct-13 18:01N 49°38' W 000°25'917.7
2018-Oct-13 17:30N 49°47' W 000°29'817.6
2018-Oct-13 17:03N 49°54' W 000°33'117.5
2018-Oct-13 17:00N 49°55' W 000°34'917.4
2018-Oct-13 16:31N 50°03' W 000°39'817.4
2018-Oct-13 16:03N 50°10' W 000°43'119.5
2018-Oct-13 16:00N 50°11' W 000°43'1019.3
2018-Oct-13 15:31N 50°20' W 000°48'919.0
2018-Oct-13 15:04N 50°28' W 000°53'118.3
2018-Oct-13 15:01N 50°29' W 000°54'918.7
2018-Oct-13 14:30N 50°38' W 000°59'917.5
2018-Oct-13 14:01N 50°46' W 001°05'3 6.2
2018-Oct-13 13:30N 50°49' W 001°06'0 0.0
2018-Oct-13 13:03N 50°49' W 001°06'0 0.0
2018-Oct-13 13:00N 50°49' W 001°06'0 0.0
2018-Oct-13 12:30N 50°49' W 001°06'0 0.0
2018-Oct-13 12:03N 50°49' W 001°06'0 2.0
2018-Oct-13 12:00N 50°49' W 001°06'5 9.7
2018-Oct-13 11:31N 50°44' W 001°04'919.3
2018-Oct-13 11:03N 50°36' W 000°58'120.6
2018-Oct-13 11:00N 50°35' W 000°57'1019.8
2018-Oct-13 10:31N 50°26' W 000°52'920.3
2018-Oct-13 10:03N 50°17' W 000°47'119.8
2018-Oct-13 10:01N 50°16' W 000°46'1019.7
2018-Oct-13 09:31N 50°07' W 000°41'818.4
2018-Oct-13 09:03N 49°59' W 000°37'118.6
2018-Oct-13 09:00N 49°58' W 000°36'918.6
2018-Oct-13 08:30N 49°50' W 000°32'818.8
2018-Oct-13 08:04N 49°42' W 000°28'119.4
2018-Oct-13 08:01N 49°41' W 000°28'1019.1
2018-Oct-13 07:31N 49°32' W 000°23'919.9
2018-Oct-13 07:04N 49°24' W 000°16'119.6
2018-Oct-13 07:01N 49°23' W 000°15'611.4
2018-Oct-13 06:30N 49°17' W 000°15'0 0.0
2018-Oct-13 06:03N 49°17' W 000°15'0 0.0
2018-Oct-13 06:00N 49°17' W 000°15'0 0.0
2018-Oct-13 05:30N 49°17' W 000°15'0 0.0
2018-Oct-13 05:03N 49°17' W 000°15'0 0.0
2018-Oct-13 05:00N 49°17' W 000°15'0 0.3
2018-Oct-13 04:31N 49°17' W 000°15'613.7
2018-Oct-13 04:03N 49°23' W 000°15'115.6
2018-Oct-13 04:01N 49°24' W 000°15'815.7
2018-Oct-13 03:31N 49°32' W 000°19'715.6
2018-Oct-13 03:04N 49°38' W 000°23'115.6
2018-Oct-13 03:00N 49°39' W 000°23'815.6
2018-Oct-13 02:30N 49°46' W 000°27'715.9
2018-Oct-13 02:03N 49°53' W 000°32'116.1
2018-Oct-13 02:01N 49°54' W 000°32'918.3
2018-Oct-13 01:31N 50°01' W 000°39'919.2
2018-Oct-13 01:03N 50°09' W 000°47'119.4
2018-Oct-13 01:01N 50°10' W 000°47'918.9
2018-Oct-13 00:30N 50°19' W 000°52'818.3
2018-Oct-13 00:04N 50°27' W 000°54'118.1
2018-Oct-13 00:00N 50°28' W 000°54'917.7
2018-Oct-12 23:31N 50°36' W 000°57'613.1
2018-Oct-12 23:04N 50°42' W 001°00'112.7
2018-Oct-12 23:00N 50°42' W 001°01'713.5
2018-Oct-12 22:30N 50°48' W 001°07'1 2.3
2018-Oct-12 22:03N 50°49' W 001°06'0 0.0
2018-Oct-12 22:00N 50°49' W 001°06'0 0.0
2018-Oct-12 21:30N 50°49' W 001°06'0 0.0
2018-Oct-12 21:03N 50°49' W 001°06'0 0.0
2018-Oct-12 21:00N 50°49' W 001°06'0 0.0
2018-Oct-12 20:30N 50°49' W 001°06'1 1.9
2018-Oct-12 20:03N 50°48' W 001°07'0 1.3
2018-Oct-12 20:00N 50°48' W 001°07'713.1
2018-Oct-12 19:30N 50°43' W 001°00'818.8
2018-Oct-12 19:03N 50°35' W 000°57'120.8
2018-Oct-12 19:00N 50°34' W 000°56'1020.5
2018-Oct-12 18:30N 50°24' W 000°53'920.4
2018-Oct-12 18:03N 50°15' W 000°48'120.7
2018-Oct-12 18:00N 50°14' W 000°48'1121.1
2018-Oct-12 17:30N 50°04' W 000°41'1021.5
2018-Oct-12 17:03N 49°55' W 000°36'121.4
2018-Oct-12 17:00N 49°54' W 000°36'1121.5
2018-Oct-12 16:30N 49°44' W 000°30'1022.1
2018-Oct-12 16:03N 49°35' W 000°23'121.8
2018-Oct-12 16:00N 49°35' W 000°22'1121.8
2018-Oct-12 15:30N 49°24' W 000°17'715.6
2018-Oct-12 15:03N 49°17' W 000°15'0 0.1
2018-Oct-12 15:00N 49°17' W 000°15'0 0.0
2018-Oct-12 14:31N 49°17' W 000°15'0 0.0
2018-Oct-12 14:00N 49°17' W 000°15'0 0.2
2018-Oct-12 13:30N 49°17' W 000°15'716.0
2018-Oct-12 13:03N 49°24' W 000°16'120.8
2018-Oct-12 13:00N 49°25' W 000°17'1121.0
2018-Oct-12 12:30N 49°35' W 000°23'920.9
2018-Oct-12 12:04N 49°44' W 000°29'120.6
2018-Oct-12 12:00N 49°45' W 000°29'1020.8
2018-Oct-12 11:30N 49°55' W 000°34'921.0
2018-Oct-12 11:04N 50°03' W 000°39'120.9
2018-Oct-12 11:01N 50°04' W 000°39'1020.8
2018-Oct-12 10:30N 50°14' W 000°46'920.5
2018-Oct-12 10:04N 50°22' W 000°52'120.7
2018-Oct-12 10:00N 50°24' W 000°53'1020.0
2018-Oct-12 09:31N 50°33' W 000°56'919.0
2018-Oct-12 09:04N 50°41' W 000°58'116.8
2018-Oct-12 09:01N 50°42' W 000°59'816.1
2018-Oct-12 08:31N 50°48' W 001°07'1 1.7
2018-Oct-12 08:03N 50°49' W 001°06'0 0.0
2018-Oct-12 08:00N 50°49' W 001°06'0 0.0
2018-Oct-12 07:30N 50°49' W 001°06'0 0.0
2018-Oct-12 07:03N 50°49' W 001°06'0 0.0
2018-Oct-12 07:00N 50°49' W 001°06'0 0.0
2018-Oct-12 06:30N 50°49' W 001°06'0 0.0
2018-Oct-12 06:03N 50°49' W 001°06'0 0.0
2018-Oct-12 06:00N 50°49' W 001°06'1 1.3
2018-Oct-12 05:31N 50°48' W 001°07'612.4
2018-Oct-12 05:04N 50°44' W 001°02'118.3
2018-Oct-12 05:00N 50°43' W 001°01'815.1
2018-Oct-12 04:30N 50°36' W 000°58'511.3
2018-Oct-12 04:03N 50°31' W 000°55'111.7
2018-Oct-12 04:00N 50°31' W 000°55'611.5
2018-Oct-12 03:29N 50°25' W 000°52'511.4
2018-Oct-12 03:02N 50°20' W 000°49'011.6
2018-Oct-12 03:00N 50°20' W 000°49'611.5
2018-Oct-12 02:30N 50°14' W 000°46'611.8
2018-Oct-12 02:02N 50°09' W 000°43'112.0
2018-Oct-12 01:59N 50°09' W 000°42'612.0
2018-Oct-12 01:30N 50°03' W 000°39'511.8
2018-Oct-12 01:03N 49°59' W 000°35'111.6
2018-Oct-12 01:00N 49°58' W 000°35'611.3
2018-Oct-12 00:30N 49°53' W 000°32'510.8
2018-Oct-12 00:03N 49°48' W 000°29'111.0
2018-Oct-12 00:00N 49°48' W 000°29'510.8
2018-Oct-11 23:30N 49°43' W 000°26'510.9
2018-Oct-11 23:03N 49°38' W 000°24'111.0
2018-Oct-11 23:00N 49°37' W 000°23'611.1
2018-Oct-11 22:30N 49°32' W 000°20'511.2
2018-Oct-11 22:03N 49°28' W 000°18'111.1
2018-Oct-11 22:00N 49°27' W 000°17'511.0
2018-Oct-11 21:30N 49°22' W 000°15'510.0
2018-Oct-11 21:03N 49°17' W 000°15'0 0.1
2018-Oct-11 21:00N 49°17' W 000°15'0 0.0
2018-Oct-11 20:30N 49°17' W 000°15'0 0.0
2018-Oct-11 20:03N 49°17' W 000°15'0 0.0
2018-Oct-11 20:00N 49°17' W 000°15'0 0.0
2018-Oct-11 19:30N 49°17' W 000°15'2 3.6
2018-Oct-11 19:03N 49°19' W 000°15'116.1
2018-Oct-11 19:00N 49°20' W 000°15'917.8
2018-Oct-11 18:30N 49°28' W 000°19'817.2
2018-Oct-11 18:03N 49°35' W 000°24'117.8
2018-Oct-11 18:00N 49°36' W 000°24'1019.8
2018-Oct-11 17:30N 49°46' W 000°29'919.5
2018-Oct-11 17:03N 49°54' W 000°34'119.1
2018-Oct-11 17:00N 49°54' W 000°35'1019.1
2018-Oct-11 16:30N 50°03' W 000°40'818.9
2018-Oct-11 16:03N 50°11' W 000°45'118.9
2018-Oct-11 16:00N 50°12' W 000°46'1019.6
2018-Oct-11 15:30N 50°22' W 000°51'920.2
2018-Oct-11 15:03N 50°30' W 000°54'117.3
2018-Oct-11 15:00N 50°31' W 000°54'917.9
2018-Oct-11 14:30N 50°39' W 000°59'816.1
2018-Oct-11 14:00N 50°46' W 001°06'2 4.7
2018-Oct-11 13:30N 50°49' W 001°06'0 0.0
2018-Oct-11 13:03N 50°49' W 001°06'0 0.0
2018-Oct-11 13:00N 50°49' W 001°06'0 0.0
2018-Oct-11 12:30N 50°49' W 001°06'0 0.0
2018-Oct-11 12:03N 50°49' W 001°06'0 1.5
2018-Oct-11 12:00N 50°49' W 001°06'5 9.6
2018-Oct-11 11:30N 50°44' W 001°04'920.1
2018-Oct-11 11:03N 50°36' W 000°58'121.1
2018-Oct-11 11:00N 50°35' W 000°58'1020.3
2018-Oct-11 10:30N 50°25' W 000°53'920.4
2018-Oct-11 10:03N 50°17' W 000°48'219.8
2018-Oct-11 09:56N 50°14' W 000°46'920.2
2018-Oct-11 09:30N 50°06' W 000°41'920.4
2018-Oct-11 09:03N 49°58' W 000°36'120.5
2018-Oct-11 09:00N 49°57' W 000°35'1020.3
2018-Oct-11 08:30N 49°47' W 000°30'920.3
2018-Oct-11 08:03N 49°39' W 000°25'120.3
2018-Oct-11 08:00N 49°38' W 000°24'1020.2
2018-Oct-11 07:30N 49°28' W 000°19'919.6
2018-Oct-11 07:03N 49°20' W 000°14'116.0
2018-Oct-11 07:00N 49°19' W 000°15'2 3.8
2018-Oct-11 06:31N 49°17' W 000°15'0 0.0
2018-Oct-11 06:04N 49°17' W 000°15'0 0.0
2018-Oct-11 06:01N 49°17' W 000°15'0 0.0
2018-Oct-11 05:30N 49°17' W 000°15'0 0.0
2018-Oct-11 05:03N 49°17' W 000°15'0 0.0
2018-Oct-11 05:00N 49°17' W 000°15'0 0.0
2018-Oct-11 04:31N 49°17' W 000°15'0 0.0
2018-Oct-11 04:03N 49°17' W 000°15'0 0.0
2018-Oct-11 04:00N 49°17' W 000°15'0 0.0
2018-Oct-11 03:30N 49°17' W 000°15'0 0.0
2018-Oct-11 03:04N 49°17' W 000°15'0 0.0
2018-Oct-11 03:01N 49°17' W 000°15'0 0.0
2018-Oct-11 02:31N 49°17' W 000°15'0 0.0
2018-Oct-11 02:04N 49°17' W 000°15'0 0.0
2018-Oct-11 02:01N 49°17' W 000°15'0 0.0
2018-Oct-11 01:30N 49°17' W 000°15'0 0.0
2018-Oct-11 01:03N 49°17' W 000°15'0 0.1
2018-Oct-11 01:00N 49°17' W 000°15'0 0.0
2018-Oct-11 00:30N 49°17' W 000°15'0 0.0
2018-Oct-11 00:04N 49°17' W 000°15'0 0.0
2018-Oct-11 00:01N 49°17' W 000°15'0 0.0
2018-Oct-10 23:31N 49°17' W 000°15'0 0.0
2018-Oct-10 23:04N 49°17' W 000°15'0 0.0
2018-Oct-10 23:01N 49°17' W 000°15'0 0.0
2018-Oct-10 22:31N 49°17' W 000°15'0 0.0
2018-Oct-10 22:03N 49°17' W 000°15'0 0.0
2018-Oct-10 22:00N 49°17' W 000°15'2 3.3
2018-Oct-10 21:30N 49°19' W 000°15'4 8.5
2018-Oct-10 21:04N 49°23' W 000°14'113.5
2018-Oct-10 21:00N 49°24' W 000°15'816.7
2018-Oct-10 20:30N 49°31' W 000°20'3 7.1
2018-Oct-10 20:03N 49°32' W 000°24'0 2.3
2018-Oct-10 20:00N 49°32' W 000°25'1 2.2
2018-Oct-10 19:30N 49°32' W 000°26'1 1.7
2018-Oct-10 19:04N 49°32' W 000°27'0 1.3
2018-Oct-10 19:01N 49°32' W 000°27'0 1.0
2018-Oct-10 18:30N 49°31' W 000°27'1 1.3
2018-Oct-10 18:03N 49°31' W 000°27'0 1.5
2018-Oct-10 18:00N 49°31' W 000°27'1 1.8
2018-Oct-10 17:31N 49°30' W 000°26'1 2.3
2018-Oct-10 17:03N 49°30' W 000°24'0 2.4
2018-Oct-10 17:00N 49°30' W 000°24'1 2.4
2018-Oct-10 16:30N 49°29' W 000°23'1 2.5
2018-Oct-10 16:03N 49°28' W 000°21'0 2.3
2018-Oct-10 15:57N 49°28' W 000°21'1 2.7
2018-Oct-10 15:30N 49°27' W 000°20'1 2.7
2018-Oct-10 15:03N 49°26' W 000°18'0 2.6
2018-Oct-10 15:00N 49°26' W 000°18'1 2.7
2018-Oct-10 14:27N 49°25' W 000°17'1 2.7
2018-Oct-10 13:57N 49°24' W 000°16'  
Track history (hours):
 
Tides and Currents Weather Stations Pressure Air Temp Water Temp Dewpoint Dewpoint Depression Visibility Wind Speed Wind Dir Waves Ship Positions

Mont Saint Michel

Last reported at 2018-Oct-20 13:31 UTC. Time now 2018-Oct-20 13:41 UTC.
Position N 50°49' W 001°06'.

Length 173 m; beam 29 m.

Type: Ship. MMSI: 227023100.

Date/timePositionNaut miles runAvg speedWind from/ knotsBaromVisibWave heightAir tempDewpointWater temp
2018-Oct-20 13:31N 50°49' W 001°06'0 0.0
2018-Oct-20 13:04N 50°49' W 001°06'0 0.0
2018-Oct-20 13:00N 50°49' W 001°06'0 0.0
2018-Oct-20 12:30N 50°49' W 001°06'0 0.6
2018-Oct-20 12:03N 50°49' W 001°06'0 8.2
2018-Oct-20 12:00N 50°48' W 001°07'713.2
2018-Oct-20 11:31N 50°43' W 001°02'818.1
2018-Oct-20 11:04N 50°35' W 000°57'119.9
2018-Oct-20 11:01N 50°34' W 000°56'1019.7
2018-Oct-20 10:31N 50°25' W 000°51'919.9
2018-Oct-20 10:03N 50°17' W 000°44'120.1
2018-Oct-20 10:01N 50°16' W 000°44'1020.0
2018-Oct-20 09:30N 50°07' W 000°37'919.8
2018-Oct-20 09:03N 49°59' W 000°32'119.6
2018-Oct-20 09:00N 49°58' W 000°32'1019.5
2018-Oct-20 08:31N 49°49' W 000°26'1021.4
2018-Oct-20 08:03N 49°40' W 000°21'121.3
2018-Oct-20 08:00N 49°39' W 000°21'1020.8
2018-Oct-20 07:30N 49°28' W 000°17'920.0
2018-Oct-20 07:04N 49°20' W 000°14'118.1
2018-Oct-20 07:00N 49°19' W 000°15'1 2.8
2018-Oct-20 06:30N 49°17' W 000°15'0 0.0
2018-Oct-20 06:03N 49°17' W 000°15'0 0.0
2018-Oct-20 06:00N 49°17' W 000°15'0 0.0
2018-Oct-20 05:30N 49°17' W 000°15'0 0.0
2018-Oct-20 05:03N 49°17' W 000°15'0 0.0
2018-Oct-20 05:00N 49°17' W 000°15'0 0.2
2018-Oct-20 04:30N 49°17' W 000°15'614.4
2018-Oct-20 04:03N 49°24' W 000°14'115.7
2018-Oct-20 04:00N 49°24' W 000°15'815.7
2018-Oct-20 03:30N 49°30' W 000°23'715.2
2018-Oct-20 03:03N 49°36' W 000°29'115.1
2018-Oct-20 03:00N 49°37' W 000°29'713.7
2018-Oct-20 02:30N 49°43' W 000°32'511.9
2018-Oct-20 02:03N 49°49' W 000°34'111.8
2018-Oct-20 02:00N 49°49' W 000°35'714.4
2018-Oct-20 01:30N 49°56' W 000°38'715.5
2018-Oct-20 01:03N 50°03' W 000°42'115.8
2018-Oct-20 01:00N 50°03' W 000°42'1716.0
2018-Oct-19 23:58N 50°19' W 000°49'816.3
2018-Oct-19 23:30N 50°27' W 000°52'716.0
2018-Oct-19 23:03N 50°33' W 000°56'116.0
2018-Oct-19 23:00N 50°34' W 000°56'816.4
2018-Oct-19 22:30N 50°42' W 001°01'613.7
2018-Oct-19 22:03N 50°47' W 001°06'110.3
2018-Oct-19 22:00N 50°47' W 001°07'1 2.8
2018-Oct-19 21:30N 50°49' W 001°06'0 0.0
2018-Oct-19 21:03N 50°49' W 001°06'0 0.1
2018-Oct-19 21:00N 50°49' W 001°06'0 0.0
2018-Oct-19 20:31N 50°49' W 001°06'0 0.2
2018-Oct-19 20:03N 50°49' W 001°06'0 3.9
2018-Oct-19 20:00N 50°49' W 001°06'510.2
2018-Oct-19 19:31N 50°44' W 001°03'817.5
2018-Oct-19 19:03N 50°37' W 000°59'118.7
2018-Oct-19 19:00N 50°36' W 000°58'918.6
2018-Oct-19 18:31N 50°27' W 000°53'918.8
2018-Oct-19 18:03N 50°19' W 000°47'118.9
2018-Oct-19 18:00N 50°18' W 000°47'918.8
2018-Oct-19 17:30N 50°09' W 000°42'818.7
2018-Oct-19 17:03N 50°01' W 000°38'118.7
2018-Oct-19 17:00N 50°01' W 000°38'918.7
2018-Oct-19 16:30N 49°51' W 000°34'919.1
2018-Oct-19 16:03N 49°43' W 000°33'120.7
2018-Oct-19 16:01N 49°42' W 000°33'1019.9
2018-Oct-19 15:30N 49°33' W 000°26'920.3
2018-Oct-19 15:03N 49°26' W 000°18'119.9
2018-Oct-19 15:01N 49°25' W 000°17'8 7.9
2018-Oct-19 14:03N 49°17' W 000°15'0 0.0
2018-Oct-19 13:30N 49°17' W 000°15'0 0.0
2018-Oct-19 13:03N 49°17' W 000°15'0 0.0
2018-Oct-19 13:00N 49°17' W 000°15'3 5.1
2018-Oct-19 12:30N 49°20' W 000°14'817.3
2018-Oct-19 12:03N 49°27' W 000°18'118.8
2018-Oct-19 12:00N 49°28' W 000°18'918.5
2018-Oct-19 11:30N 49°37' W 000°22'818.5
2018-Oct-19 11:03N 49°45' W 000°26'118.5
2018-Oct-19 11:00N 49°46' W 000°27'918.6
2018-Oct-19 10:30N 49°55' W 000°31'818.5
2018-Oct-19 10:03N 50°03' W 000°35'118.3
2018-Oct-19 10:00N 50°04' W 000°35'918.5
2018-Oct-19 09:30N 50°13' W 000°39'1218.6
2018-Oct-19 08:53N 50°23' W 000°45'718.6
2018-Oct-19 08:30N 50°30' W 000°51'918.9
2018-Oct-19 08:03N 50°37' W 000°57'119.0
2018-Oct-19 08:00N 50°38' W 000°58'917.5
2018-Oct-19 07:30N 50°45' W 001°05'3 7.7
2018-Oct-19 07:03N 50°49' W 001°06'0 0.0
2018-Oct-19 07:00N 50°49' W 001°06'0 0.0
2018-Oct-19 06:30N 50°49' W 001°06'0 0.0
2018-Oct-19 06:03N 50°49' W 001°06'0 0.0
2018-Oct-19 06:00N 50°49' W 001°06'0 0.2
2018-Oct-19 05:30N 50°49' W 001°06'3 7.5
2018-Oct-19 05:04N 50°45' W 001°05'115.1
2018-Oct-19 05:01N 50°45' W 001°05'713.7
2018-Oct-19 04:31N 50°39' W 000°59'613.3
2018-Oct-19 04:03N 50°33' W 000°56'110.7
2018-Oct-19 04:00N 50°33' W 000°55'510.7
2018-Oct-19 03:30N 50°28' W 000°53'510.9
2018-Oct-19 03:03N 50°23' W 000°52'111.0
2018-Oct-19 03:00N 50°22' W 000°52'610.9
2018-Oct-19 02:29N 50°17' W 000°50'510.9
2018-Oct-19 02:02N 50°12' W 000°47'011.0
2018-Oct-19 02:00N 50°12' W 000°47'510.8
2018-Oct-19 01:30N 50°07' W 000°44'511.0
2018-Oct-19 01:02N 50°02' W 000°41'011.0
2018-Oct-19 00:59N 50°01' W 000°41'613.1
2018-Oct-19 00:30N 49°56' W 000°37'715.1
2018-Oct-19 00:04N 49°49' W 000°34'115.2
2018-Oct-19 00:00N 49°48' W 000°33'815.3
2018-Oct-18 23:30N 49°41' W 000°29'715.3
2018-Oct-18 23:03N 49°35' W 000°25'115.4
2018-Oct-18 23:00N 49°34' W 000°24'815.2
2018-Oct-18 22:31N 49°27' W 000°19'715.3
2018-Oct-18 22:03N 49°21' W 000°15'115.1
2018-Oct-18 22:01N 49°20' W 000°15'3 6.2
2018-Oct-18 21:30N 49°17' W 000°15'0 0.0
2018-Oct-18 21:03N 49°17' W 000°15'0 0.0
2018-Oct-18 21:00N 49°17' W 000°15'0 0.0
2018-Oct-18 20:30N 49°17' W 000°15'0 0.0
2018-Oct-18 20:03N 49°17' W 000°15'0 0.0
2018-Oct-18 20:00N 49°17' W 000°15'0 0.0
2018-Oct-18 19:30N 49°17' W 000°15'2 5.1
2018-Oct-18 19:04N 49°20' W 000°14'119.4
2018-Oct-18 19:01N 49°21' W 000°14'816.7
2018-Oct-18 18:31N 49°29' W 000°17'715.9
2018-Oct-18 18:03N 49°36' W 000°20'115.9
2018-Oct-18 18:01N 49°36' W 000°20'816.9
2018-Oct-18 17:31N 49°44' W 000°25'919.5
2018-Oct-18 17:04N 49°52' W 000°32'119.5
2018-Oct-18 17:01N 49°53' W 000°33'1019.5
2018-Oct-18 16:30N 50°01' W 000°41'919.5
2018-Oct-18 16:02N 50°09' W 000°49'119.5
2018-Oct-18 15:59N 50°09' W 000°49'1019.5
2018-Oct-18 15:29N 50°18' W 000°57'819.4
2018-Oct-18 15:03N 50°27' W 000°57'119.4
2018-Oct-18 15:01N 50°27' W 000°57'1019.2
2018-Oct-18 14:30N 50°37' W 000°59'816.9
2018-Oct-18 14:01N 50°45' W 001°05'4 8.4
2018-Oct-18 13:31N 50°49' W 001°06'0 0.0
2018-Oct-18 13:03N 50°49' W 001°06'0 0.0
2018-Oct-18 13:00N 50°49' W 001°06'0 0.0
2018-Oct-18 12:31N 50°49' W 001°06'1 1.4
2018-Oct-18 12:03N 50°48' W 001°07'0 9.4
2018-Oct-18 12:00N 50°48' W 001°07'714.4
2018-Oct-18 11:30N 50°43' W 000°60'919.3
2018-Oct-18 11:03N 50°34' W 000°55'120.4
2018-Oct-18 11:00N 50°33' W 000°55'1020.7
2018-Oct-18 10:30N 50°24' W 000°49'921.0
2018-Oct-18 10:03N 50°15' W 000°44'121.3
2018-Oct-18 10:00N 50°14' W 000°44'919.2
2018-Oct-18 09:30N 50°05' W 000°39'919.4
2018-Oct-18 09:03N 49°56' W 000°34'119.3
2018-Oct-18 09:00N 49°56' W 000°34'1019.2
2018-Oct-18 08:30N 49°46' W 000°29'919.4
2018-Oct-18 08:03N 49°38' W 000°24'119.2
2018-Oct-18 08:00N 49°37' W 000°23'1019.9
2018-Oct-18 07:30N 49°28' W 000°18'920.2
2018-Oct-18 07:03N 49°19' W 000°15'115.3
2018-Oct-18 07:00N 49°19' W 000°15'1 2.3
2018-Oct-18 06:30N 49°17' W 000°15'0 0.0
2018-Oct-18 06:03N 49°17' W 000°15'0 0.0
2018-Oct-18 06:00N 49°17' W 000°15'0 0.0
2018-Oct-18 05:30N 49°17' W 000°15'0 0.0
2018-Oct-18 05:03N 49°17' W 000°15'0 0.0
2018-Oct-18 05:00N 49°17' W 000°15'0 0.2
2018-Oct-18 04:31N 49°17' W 000°15'612.4
2018-Oct-18 04:04N 49°23' W 000°15'111.5
2018-Oct-18 04:00N 49°23' W 000°15'611.5
2018-Oct-18 03:30N 49°28' W 000°20'511.2
2018-Oct-18 03:04N 49°32' W 000°24'111.3
2018-Oct-18 03:00N 49°33' W 000°24'611.2
2018-Oct-18 02:30N 49°38' W 000°28'511.4
2018-Oct-18 02:03N 49°43' W 000°31'111.6
2018-Oct-18 02:00N 49°43' W 000°32'713.4
2018-Oct-18 01:31N 49°49' W 000°35'715.7
2018-Oct-18 01:04N 49°56' W 000°39'115.7
2018-Oct-18 01:00N 49°57' W 000°39'815.8
2018-Oct-18 00:30N 50°04' W 000°43'815.8
2018-Oct-17 23:59N 50°12' W 000°48'1015.9
2018-Oct-17 23:20N 50°22' W 000°51'416.0
2018-Oct-17 23:03N 50°27' W 000°53'116.0
2018-Oct-17 23:01N 50°27' W 000°53'815.6
2018-Oct-17 22:31N 50°35' W 000°56'714.8
2018-Oct-17 22:03N 50°41' W 000°59'110.8
2018-Oct-17 22:00N 50°42' W 000°60'510.8
2018-Oct-17 21:30N 50°46' W 001°05'3 6.7
2018-Oct-17 21:03N 50°49' W 001°06'0 0.0
2018-Oct-17 21:00N 50°49' W 001°06'0 0.0
2018-Oct-17 20:31N 50°49' W 001°06'0 0.0
2018-Oct-17 20:03N 50°49' W 001°06'0 0.0
2018-Oct-17 20:00N 50°49' W 001°06'0 0.0
2018-Oct-17 19:31N 50°49' W 001°06'0 0.0
2018-Oct-17 19:03N 50°49' W 001°06'0 0.0
2018-Oct-17 19:00N 50°49' W 001°06'0 0.0
2018-Oct-17 18:30N 50°49' W 001°06'0 0.9
2018-Oct-17 18:03N 50°49' W 001°06'0 8.1
2018-Oct-17 18:01N 50°48' W 001°07'612.5
2018-Oct-17 17:30N 50°43' W 001°03'715.4
2018-Oct-17 17:03N 50°36' W 000°58'116.0
2018-Oct-17 17:00N 50°36' W 000°58'816.2
2018-Oct-17 16:30N 50°28' W 000°55'716.4
2018-Oct-17 16:03N 50°21' W 000°51'117.8
2018-Oct-17 16:00N 50°20' W 000°50'917.7
2018-Oct-17 15:30N 50°12' W 000°45'817.7
2018-Oct-17 15:03N 50°04' W 000°41'117.8
2018-Oct-17 15:00N 50°03' W 000°41'1817.7
2018-Oct-17 14:00N 49°47' W 000°32'917.9
2018-Oct-17 13:30N 49°39' W 000°25'818.4
2018-Oct-17 13:03N 49°31' W 000°20'117.7
2018-Oct-17 13:00N 49°31' W 000°19'917.7
2018-Oct-17 12:30N 49°22' W 000°15'510.9
2018-Oct-17 12:03N 49°17' W 000°15'0 0.0
2018-Oct-17 12:00N 49°17' W 000°15'0 0.0
2018-Oct-17 11:30N 49°17' W 000°15'0 0.0
2018-Oct-17 11:03N 49°17' W 000°15'0 0.0
2018-Oct-17 11:00N 49°17' W 000°15'0 0.0
2018-Oct-17 10:31N 49°17' W 000°15'0 0.0
2018-Oct-17 10:03N 49°17' W 000°15'0 0.0
2018-Oct-17 10:00N 49°17' W 000°15'0 0.0
2018-Oct-17 09:31N 49°17' W 000°15'0 0.0
2018-Oct-17 09:03N 49°17' W 000°15'0 0.0
2018-Oct-17 09:00N 49°17' W 000°15'0 0.1
2018-Oct-17 08:30N 49°17' W 000°15'0 0.0
2018-Oct-17 08:03N 49°17' W 000°15'0 0.0
2018-Oct-17 08:00N 49°17' W 000°15'0 0.0
2018-Oct-17 07:30N 49°17' W 000°15'0 0.0
2018-Oct-17 07:03N 49°17' W 000°15'0 0.0
2018-Oct-17 07:00N 49°17' W 000°15'0 0.0
2018-Oct-17 06:30N 49°17' W 000°15'0 0.1
2018-Oct-17 06:03N 49°17' W 000°15'0 0.0
2018-Oct-17 06:00N 49°17' W 000°15'0 0.0
2018-Oct-17 05:31N 49°17' W 000°15'1 3.1
2018-Oct-17 05:04N 49°19' W 000°15'116.7
2018-Oct-17 05:00N 49°20' W 000°14'815.8
2018-Oct-17 04:31N 49°27' W 000°19'614.4
2018-Oct-17 04:03N 49°33' W 000°22'111.8
2018-Oct-17 04:00N 49°34' W 000°22'612.1
2018-Oct-17 03:30N 49°39' W 000°25'612.4
2018-Oct-17 03:03N 49°45' W 000°29'112.6
2018-Oct-17 03:00N 49°45' W 000°29'612.5
2018-Oct-17 02:30N 49°51' W 000°33'614.8
2018-Oct-17 02:03N 49°57' W 000°38'115.5
2018-Oct-17 02:00N 49°57' W 000°38'815.3
2018-Oct-17 01:30N 50°04' W 000°43'715.0
2018-Oct-17 01:03N 50°11' W 000°47'814.6
2018-Oct-17 00:28N 50°19' W 000°49'614.6
2018-Oct-17 00:03N 50°25' W 000°52'114.8
2018-Oct-17 00:00N 50°26' W 000°53'714.9
2018-Oct-16 23:30N 50°33' W 000°56'714.8
2018-Oct-16 23:03N 50°39' W 000°58'114.9
2018-Oct-16 23:00N 50°40' W 000°58'714.5
2018-Oct-16 22:30N 50°46' W 001°05'3 6.9
2018-Oct-16 22:03N 50°49' W 001°06'0 0.0
2018-Oct-16 22:00N 50°49' W 001°06'0 0.0
2018-Oct-16 21:30N 50°49' W 001°06'0 0.0
2018-Oct-16 21:03N 50°49' W 001°06'0 0.0
2018-Oct-16 21:00N 50°49' W 001°06'0 0.0
2018-Oct-16 20:30N 50°49' W 001°06'0 0.2
2018-Oct-16 20:04N 50°49' W 001°06'0 0.3
2018-Oct-16 20:00N 50°49' W 001°06'4 9.0
2018-Oct-16 19:30N 50°44' W 001°04'716.3
2018-Oct-16 19:03N 50°38' W 000°58'117.6
2018-Oct-16 19:00N 50°37' W 000°57'917.7
2018-Oct-16 18:30N 50°29' W 000°52'817.4
2018-Oct-16 18:02N 50°22' W 000°48'118.5
2018-Oct-16 18:00N 50°21' W 000°47'918.7
2018-Oct-16 17:30N 50°12' W 000°42'818.6
2018-Oct-16 17:03N 50°04' W 000°39'118.9
2018-Oct-16 17:00N 50°03' W 000°39'1019.2
2018-Oct-16 16:30N 49°54' W 000°35'1020.8
2018-Oct-16 16:02N 49°45' W 000°29'021.2
2018-Oct-16 16:00N 49°44' W 000°29'1121.1
2018-Oct-16 15:30N 49°35' W 000°23'920.9
2018-Oct-16 15:03N 49°26' W 000°17'120.2
2018-Oct-16 15:00N 49°25' W 000°16'815.3
2018-Oct-16 14:30N 49°17' W 000°15'0 0.0
2018-Oct-16 14:00N 49°17' W 000°15'0 0.0
2018-Oct-16 13:30N 49°17' W 000°15'0 0.0
2018-Oct-16 13:03N 49°17' W 000°15'0 0.0
2018-Oct-16 13:00N 49°17' W 000°15'1 2.3
2018-Oct-16 12:30N 49°18' W 000°15'818.6
2018-Oct-16 12:03N 49°27' W 000°17'119.6
2018-Oct-16 12:00N 49°28' W 000°17'1019.0
2018-Oct-16 11:30N 49°37' W 000°21'919.3
2018-Oct-16 11:03N 49°45' W 000°25'119.4
2018-Oct-16 11:00N 49°46' W 000°26'1019.4
2018-Oct-16 10:30N 49°55' W 000°33'919.0
2018-Oct-16 10:03N 50°02' W 000°38'118.7
2018-Oct-16 10:00N 50°03' W 000°39'918.9
2018-Oct-16 09:30N 50°12' W 000°44'1018.7
2018-Oct-16 09:00N 50°21' W 000°48'918.5
2018-Oct-16 08:30N 50°29' W 000°54'919.6
2018-Oct-16 08:03N 50°38' W 000°59'119.9
2018-Oct-16 08:00N 50°39' W 000°59'816.4
2018-Oct-16 07:30N 50°46' W 001°05'3 6.2
2018-Oct-16 07:03N 50°49' W 001°06'0 0.0
2018-Oct-16 07:00N 50°49' W 001°06'0 0.0
2018-Oct-16 06:30N 50°49' W 001°06'0 0.0
2018-Oct-16 06:03N 50°49' W 001°06'0 0.0
2018-Oct-16 06:00N 50°49' W 001°06'0 0.3
2018-Oct-16 05:31N 50°49' W 001°06'4 9.9
2018-Oct-16 05:03N 50°44' W 001°04'120.9
2018-Oct-16 05:00N 50°44' W 001°03'917.2
2018-Oct-16 04:30N 50°36' W 000°58'511.8
2018-Oct-16 04:03N 50°31' W 000°55'111.8
2018-Oct-16 04:00N 50°30' W 000°55'611.8
2018-Oct-16 03:31N 50°25' W 000°51'511.9
2018-Oct-16 03:03N 50°20' W 000°48'112.0
2018-Oct-16 03:00N 50°19' W 000°48'611.8
2018-Oct-16 02:30N 50°14' W 000°44'511.6
2018-Oct-16 02:03N 50°09' W 000°41'111.5
2018-Oct-16 02:00N 50°09' W 000°40'611.5
2018-Oct-16 01:30N 50°03' W 000°37'511.4
2018-Oct-16 01:03N 49°59' W 000°34'111.7
2018-Oct-16 01:01N 49°58' W 000°34'611.3
2018-Oct-16 00:30N 49°53' W 000°31'511.1
2018-Oct-16 00:03N 49°48' W 000°29'111.2
2018-Oct-16 00:00N 49°47' W 000°28'611.3
2018-Oct-15 23:30N 49°42' W 000°26'511.4
2018-Oct-15 23:03N 49°37' W 000°24'111.3
2018-Oct-15 23:00N 49°36' W 000°24'611.5
2018-Oct-15 22:30N 49°31' W 000°20'511.2
2018-Oct-15 22:03N 49°27' W 000°17'111.2
2018-Oct-15 22:00N 49°26' W 000°17'611.1
2018-Oct-15 21:30N 49°21' W 000°14'3 7.4
2018-Oct-15 21:03N 49°17' W 000°15'0 0.0
2018-Oct-15 21:00N 49°17' W 000°15'0 0.0
2018-Oct-15 20:30N 49°17' W 000°15'0 0.0
2018-Oct-15 20:03N 49°17' W 000°15'0 0.0
2018-Oct-15 20:00N 49°17' W 000°15'0 0.0
2018-Oct-15 19:30N 49°17' W 000°15'2 3.6
2018-Oct-15 19:03N 49°19' W 000°15'116.7
2018-Oct-15 19:00N 49°20' W 000°14'918.1
2018-Oct-15 18:30N 49°29' W 000°17'817.8
2018-Oct-15 18:03N 49°36' W 000°22'117.6
2018-Oct-15 18:00N 49°37' W 000°23'917.6
2018-Oct-15 17:30N 49°45' W 000°28'817.9
2018-Oct-15 17:03N 49°52' W 000°33'118.0
2018-Oct-15 17:00N 49°53' W 000°34'918.2
2018-Oct-15 16:30N 50°01' W 000°39'818.3
2018-Oct-15 16:04N 50°09' W 000°44'118.5
2018-Oct-15 16:00N 50°10' W 000°45'918.5
2018-Oct-15 15:30N 50°19' W 000°49'918.9
2018-Oct-15 15:03N 50°27' W 000°51'118.8
2018-Oct-15 15:00N 50°28' W 000°52'918.7
2018-Oct-15 14:31N 50°37' W 000°57'918.3
2018-Oct-15 14:00N 50°45' W 001°05'4 8.4
2018-Oct-15 13:30N 50°49' W 001°06'0 0.0
2018-Oct-15 13:03N 50°49' W 001°06'0 0.0
2018-Oct-15 13:00N 50°49' W 001°06'0 0.0
2018-Oct-15 12:30N 50°49' W 001°06'0 0.2
2018-Oct-15 12:03N 50°49' W 001°06'0 2.9
2018-Oct-15 12:01N 50°49' W 001°06'611.7
2018-Oct-15 11:30N 50°43' W 001°02'817.9
2018-Oct-15 11:03N 50°36' W 000°59'116.4
2018-Oct-15 11:00N 50°35' W 000°59'815.9
2018-Oct-15 10:30N 50°27' W 000°55'817.1
2018-Oct-15 10:01N 50°19' W 000°52'018.5
2018-Oct-15 10:00N 50°19' W 000°52'919.0
2018-Oct-15 09:30N 50°10' W 000°48'919.1
2018-Oct-15 09:03N 50°02' W 000°44'119.3
2018-Oct-15 09:00N 50°01' W 000°43'1019.6
2018-Oct-15 08:30N 49°52' W 000°37'920.9
2018-Oct-15 08:03N 49°43' W 000°31'121.2
2018-Oct-15 08:00N 49°42' W 000°30'1121.1
2018-Oct-15 07:30N 49°33' W 000°23'1021.1
2018-Oct-15 07:03N 49°24' W 000°17'120.7
2018-Oct-15 07:00N 49°23' W 000°16'612.1
2018-Oct-15 06:30N 49°17' W 000°15'0 0.0
2018-Oct-15 06:03N 49°17' W 000°15'0 0.0
2018-Oct-15 06:00N 49°17' W 000°15'0 0.0
2018-Oct-15 05:30N 49°17' W 000°15'0 0.0
2018-Oct-15 05:03N 49°17' W 000°15'0 0.0
2018-Oct-15 05:00N 49°17' W 000°15'0 0.3
2018-Oct-15 04:30N 49°17' W 000°15'614.0
2018-Oct-15 04:04N 49°23' W 000°14'114.8
2018-Oct-15 04:01N 49°24' W 000°14'714.3
2018-Oct-15 03:31N 49°31' W 000°18'614.1
2018-Oct-15 03:04N 49°37' W 000°22'114.0
2018-Oct-15 03:01N 49°37' W 000°22'714.2
2018-Oct-15 02:31N 49°44' W 000°26'714.6
2018-Oct-15 02:04N 49°50' W 000°30'114.8
2018-Oct-15 02:01N 49°51' W 000°30'815.0
2018-Oct-15 01:31N 49°58' W 000°35'715.2
2018-Oct-15 01:03N 50°04' W 000°38'115.4
2018-Oct-15 01:00N 50°05' W 000°39'815.2
2018-Oct-15 00:30N 50°12' W 000°43'815.3
2018-Oct-15 00:01N 50°19' W 000°47'013.6
2018-Oct-15 00:01N 50°19' W 000°47'815.1
2018-Oct-14 23:28N 50°27' W 000°52'715.9
2018-Oct-14 23:04N 50°33' W 000°56'115.9
2018-Oct-14 23:01N 50°34' W 000°56'815.8
2018-Oct-14 22:31N 50°42' W 000°58'613.3
2018-Oct-14 22:04N 50°45' W 001°05'114.4
2018-Oct-14 22:00N 50°46' W 001°05'3 5.1
2018-Oct-14 21:30N 50°49' W 001°06'0 0.0
2018-Oct-14 21:03N 50°49' W 001°06'0 0.0
2018-Oct-14 21:00N 50°49' W 001°06'0 0.0
2018-Oct-14 20:30N 50°49' W 001°06'0 0.2
2018-Oct-14 20:03N 50°49' W 001°06'0 3.4
2018-Oct-14 20:01N 50°49' W 001°06'612.1
2018-Oct-14 19:30N 50°43' W 001°02'817.7
2018-Oct-14 19:03N 50°36' W 000°57'120.5
2018-Oct-14 19:00N 50°35' W 000°56'1020.4
2018-Oct-14 18:30N 50°25' W 000°51'1117.5
2018-Oct-14 17:52N 50°14' W 000°48'617.4
2018-Oct-14 17:30N 50°08' W 000°45'818.6
2018-Oct-14 17:03N 50°01' W 000°39'118.8
2018-Oct-14 17:00N 50°00' W 000°38'918.9
2018-Oct-14 16:30N 49°52' W 000°32'919.1
2018-Oct-14 16:03N 49°44' W 000°27'119.4
2018-Oct-14 16:00N 49°43' W 000°27'1019.1
2018-Oct-14 15:30N 49°34' W 000°22'818.8
2018-Oct-14 15:03N 49°26' W 000°17'119.2
2018-Oct-14 15:00N 49°25' W 000°16'815.5
2018-Oct-14 14:30N 49°17' W 000°15'0 0.1
2018-Oct-14 14:00N 49°17' W 000°15'0 0.0
2018-Oct-14 13:30N 49°17' W 000°15'0 0.0
2018-Oct-14 13:03N 49°17' W 000°15'0 0.0
2018-Oct-14 13:00N 49°17' W 000°15'3 6.5
2018-Oct-14 12:30N 49°21' W 000°14'920.7
2018-Oct-14 12:04N 49°30' W 000°18'119.7
2018-Oct-14 12:01N 49°30' W 000°18'1019.5
2018-Oct-14 11:31N 49°39' W 000°24'817.3
2018-Oct-14 11:04N 49°47' W 000°28'117.4
2018-Oct-14 11:00N 49°48' W 000°29'917.9
2018-Oct-14 10:31N 49°56' W 000°34'817.6
2018-Oct-14 10:03N 50°03' W 000°40'117.4
2018-Oct-14 10:00N 50°04' W 000°40'1019.2
2018-Oct-14 09:31N 50°12' W 000°47'1020.0
2018-Oct-14 09:02N 50°21' W 000°53'119.7
2018-Oct-14 08:59N 50°22' W 000°53'919.5
2018-Oct-14 08:31N 50°31' W 000°56'919.3
2018-Oct-14 08:04N 50°40' W 000°58'118.5
2018-Oct-14 08:01N 50°41' W 000°58'816.1
2018-Oct-14 07:31N 50°47' W 001°06'2 4.1
2018-Oct-14 07:03N 50°49' W 001°06'0 0.0
2018-Oct-14 07:01N 50°49' W 001°06'0 0.0
2018-Oct-14 06:30N 50°49' W 001°06'0 0.0
2018-Oct-14 06:03N 50°49' W 001°06'0 0.0
2018-Oct-14 06:00N 50°49' W 001°06'0 0.4
2018-Oct-14 05:31N 50°49' W 001°06'511.1
2018-Oct-14 05:03N 50°44' W 001°04'118.3
2018-Oct-14 05:00N 50°44' W 001°02'917.2
2018-Oct-14 04:30N 50°36' W 000°57'613.3
2018-Oct-14 04:03N 50°30' W 000°55'111.1
2018-Oct-14 04:00N 50°29' W 000°54'611.2
2018-Oct-14 03:30N 50°24' W 000°51'511.4
2018-Oct-14 03:03N 50°19' W 000°49'111.4
2018-Oct-14 02:58N 50°18' W 000°48'511.4
2018-Oct-14 02:30N 50°13' W 000°45'511.1
2018-Oct-14 02:03N 50°09' W 000°42'111.0
2018-Oct-14 02:00N 50°08' W 000°42'510.8
2018-Oct-14 01:30N 50°03' W 000°38'510.2
2018-Oct-14 01:03N 49°59' W 000°35'0 9.8
2018-Oct-14 01:00N 49°59' W 000°35'5 9.4
2018-Oct-14 00:30N 49°54' W 000°32'4 9.8
2018-Oct-14 00:03N 49°50' W 000°29'110.4
2018-Oct-14 00:00N 49°50' W 000°29'510.6
2018-Oct-13 23:30N 49°45' W 000°26'510.8
2018-Oct-13 23:03N 49°40' W 000°24'110.9
2018-Oct-13 23:00N 49°40' W 000°23'510.9
2018-Oct-13 22:30N 49°35' W 000°21'510.9
2018-Oct-13 22:03N 49°30' W 000°18'110.8
2018-Oct-13 22:00N 49°29' W 000°18'611.2
2018-Oct-13 21:30N 49°24' W 000°15'510.3
2018-Oct-13 21:03N 49°20' W 000°14'111.0
2018-Oct-13 21:00N 49°19' W 000°15'2 3.4
2018-Oct-13 20:30N 49°17' W 000°15'0 0.0
2018-Oct-13 20:03N 49°17' W 000°15'0 0.0
2018-Oct-13 20:00N 49°17' W 000°15'0 0.0
2018-Oct-13 19:30N 49°17' W 000°15'3 6.2
2018-Oct-13 19:03N 49°20' W 000°14'118.1
2018-Oct-13 19:00N 49°21' W 000°14'1019.1
2018-Oct-13 18:31N 49°30' W 000°21'817.8
2018-Oct-13 18:04N 49°37' W 000°25'117.9
2018-Oct-13 18:01N 49°38' W 000°25'917.7
2018-Oct-13 17:30N 49°47' W 000°29'817.6
2018-Oct-13 17:03N 49°54' W 000°33'117.5
2018-Oct-13 17:00N 49°55' W 000°34'917.4
2018-Oct-13 16:31N 50°03' W 000°39'817.4
2018-Oct-13 16:03N 50°10' W 000°43'119.5
2018-Oct-13 16:00N 50°11' W 000°43'1019.3
2018-Oct-13 15:31N 50°20' W 000°48'919.0
2018-Oct-13 15:04N 50°28' W 000°53'118.3
2018-Oct-13 15:01N 50°29' W 000°54'918.7
2018-Oct-13 14:30N 50°38' W 000°59'917.5
2018-Oct-13 14:01N 50°46' W 001°05'3 6.2
2018-Oct-13 13:30N 50°49' W 001°06'0 0.0
2018-Oct-13 13:03N 50°49' W 001°06'0 0.0
2018-Oct-13 13:00N 50°49' W 001°06'0 0.0
2018-Oct-13 12:30N 50°49' W 001°06'0 0.0
2018-Oct-13 12:03N 50°49' W 001°06'0 2.0
2018-Oct-13 12:00N 50°49' W 001°06'5 9.7
2018-Oct-13 11:31N 50°44' W 001°04'919.3
2018-Oct-13 11:03N 50°36' W 000°58'120.6
2018-Oct-13 11:00N 50°35' W 000°57'1019.8
2018-Oct-13 10:31N 50°26' W 000°52'920.3
2018-Oct-13 10:03N 50°17' W 000°47'119.8
2018-Oct-13 10:01N 50°16' W 000°46'1019.7
2018-Oct-13 09:31N 50°07' W 000°41'818.4
2018-Oct-13 09:03N 49°59' W 000°37'118.6
2018-Oct-13 09:00N 49°58' W 000°36'918.6
2018-Oct-13 08:30N 49°50' W 000°32'818.8
2018-Oct-13 08:04N 49°42' W 000°28'119.4
2018-Oct-13 08:01N 49°41' W 000°28'1019.1
2018-Oct-13 07:31N 49°32' W 000°23'919.9
2018-Oct-13 07:04N 49°24' W 000°16'119.6
2018-Oct-13 07:01N 49°23' W 000°15'611.4
2018-Oct-13 06:30N 49°17' W 000°15'0 0.0
2018-Oct-13 06:03N 49°17' W 000°15'0 0.0
2018-Oct-13 06:00N 49°17' W 000°15'0 0.0
2018-Oct-13 05:30N 49°17' W 000°15'0 0.0
2018-Oct-13 05:03N 49°17' W 000°15'0 0.0
2018-Oct-13 05:00N 49°17' W 000°15'0 0.3
2018-Oct-13 04:31N 49°17' W 000°15'613.7
2018-Oct-13 04:03N 49°23' W 000°15'115.6
2018-Oct-13 04:01N 49°24' W 000°15'815.7
2018-Oct-13 03:31N 49°32' W 000°19'715.6
2018-Oct-13 03:04N 49°38' W 000°23'115.6
2018-Oct-13 03:00N 49°39' W 000°23'815.6
2018-Oct-13 02:30N 49°46' W 000°27'715.9
2018-Oct-13 02:03N 49°53' W 000°32'116.1
2018-Oct-13 02:01N 49°54' W 000°32'918.3
2018-Oct-13 01:31N 50°01' W 000°39'919.2
2018-Oct-13 01:03N 50°09' W 000°47'119.4
2018-Oct-13 01:01N 50°10' W 000°47'918.9
2018-Oct-13 00:30N 50°19' W 000°52'818.3
2018-Oct-13 00:04N 50°27' W 000°54'118.1
2018-Oct-13 00:00N 50°28' W 000°54'917.7
2018-Oct-12 23:31N 50°36' W 000°57'613.1
2018-Oct-12 23:04N 50°42' W 001°00'112.7
2018-Oct-12 23:00N 50°42' W 001°01'713.5
2018-Oct-12 22:30N 50°48' W 001°07'1 2.3
2018-Oct-12 22:03N 50°49' W 001°06'0 0.0
2018-Oct-12 22:00N 50°49' W 001°06'0 0.0
2018-Oct-12 21:30N 50°49' W 001°06'0 0.0
2018-Oct-12 21:03N 50°49' W 001°06'0 0.0
2018-Oct-12 21:00N 50°49' W 001°06'0 0.0
2018-Oct-12 20:30N 50°49' W 001°06'1 1.9
2018-Oct-12 20:03N 50°48' W 001°07'0 1.3
2018-Oct-12 20:00N 50°48' W 001°07'713.1
2018-Oct-12 19:30N 50°43' W 001°00'818.8
2018-Oct-12 19:03N 50°35' W 000°57'120.8
2018-Oct-12 19:00N 50°34' W 000°56'1020.5
2018-Oct-12 18:30N 50°24' W 000°53'920.4
2018-Oct-12 18:03N 50°15' W 000°48'120.7
2018-Oct-12 18:00N 50°14' W 000°48'1121.1
2018-Oct-12 17:30N 50°04' W 000°41'1021.5
2018-Oct-12 17:03N 49°55' W 000°36'121.4
2018-Oct-12 17:00N 49°54' W 000°36'1121.5
2018-Oct-12 16:30N 49°44' W 000°30'1022.1
2018-Oct-12 16:03N 49°35' W 000°23'121.8
2018-Oct-12 16:00N 49°35' W 000°22'1121.8
2018-Oct-12 15:30N 49°24' W 000°17'715.6
2018-Oct-12 15:03N 49°17' W 000°15'0 0.1
2018-Oct-12 15:00N 49°17' W 000°15'0 0.0
2018-Oct-12 14:31N 49°17' W 000°15'0 0.0
2018-Oct-12 14:00N 49°17' W 000°15'0 0.2
2018-Oct-12 13:30N 49°17' W 000°15'716.0
2018-Oct-12 13:03N 49°24' W 000°16'120.8
2018-Oct-12 13:00N 49°25' W 000°17'1121.0
2018-Oct-12 12:30N 49°35' W 000°23'920.9
2018-Oct-12 12:04N 49°44' W 000°29'120.6
2018-Oct-12 12:00N 49°45' W 000°29'1020.8
2018-Oct-12 11:30N 49°55' W 000°34'921.0
2018-Oct-12 11:04N 50°03' W 000°39'120.9
2018-Oct-12 11:01N 50°04' W 000°39'1020.8
2018-Oct-12 10:30N 50°14' W 000°46'920.5
2018-Oct-12 10:04N 50°22' W 000°52'120.7
2018-Oct-12 10:00N 50°24' W 000°53'1020.0
2018-Oct-12 09:31N 50°33' W 000°56'919.0
2018-Oct-12 09:04N 50°41' W 000°58'116.8
2018-Oct-12 09:01N 50°42' W 000°59'816.1
2018-Oct-12 08:31N 50°48' W 001°07'1 1.7
2018-Oct-12 08:03N 50°49' W 001°06'0 0.0
2018-Oct-12 08:00N 50°49' W 001°06'0 0.0
2018-Oct-12 07:30N 50°49' W 001°06'0 0.0
2018-Oct-12 07:03N 50°49' W 001°06'0 0.0
2018-Oct-12 07:00N 50°49' W 001°06'0 0.0
2018-Oct-12 06:30N 50°49' W 001°06'0 0.0
2018-Oct-12 06:03N 50°49' W 001°06'0 0.0
2018-Oct-12 06:00N 50°49' W 001°06'1 1.3
2018-Oct-12 05:31N 50°48' W 001°07'612.4
2018-Oct-12 05:04N 50°44' W 001°02'118.3
2018-Oct-12 05:00N 50°43' W 001°01'815.1
2018-Oct-12 04:30N 50°36' W 000°58'511.3
2018-Oct-12 04:03N 50°31' W 000°55'111.7
2018-Oct-12 04:00N 50°31' W 000°55'611.5
2018-Oct-12 03:29N 50°25' W 000°52'511.4
2018-Oct-12 03:02N 50°20' W 000°49'011.6
2018-Oct-12 03:00N 50°20' W 000°49'611.5
2018-Oct-12 02:30N 50°14' W 000°46'611.8
2018-Oct-12 02:02N 50°09' W 000°43'112.0
2018-Oct-12 01:59N 50°09' W 000°42'612.0
2018-Oct-12 01:30N 50°03' W 000°39'511.8
2018-Oct-12 01:03N 49°59' W 000°35'111.6
2018-Oct-12 01:00N 49°58' W 000°35'611.3
2018-Oct-12 00:30N 49°53' W 000°32'510.8
2018-Oct-12 00:03N 49°48' W 000°29'111.0
2018-Oct-12 00:00N 49°48' W 000°29'510.8
2018-Oct-11 23:30N 49°43' W 000°26'510.9
2018-Oct-11 23:03N 49°38' W 000°24'111.0
2018-Oct-11 23:00N 49°37' W 000°23'611.1
2018-Oct-11 22:30N 49°32' W 000°20'511.2
2018-Oct-11 22:03N 49°28' W 000°18'111.1
2018-Oct-11 22:00N 49°27' W 000°17'511.0
2018-Oct-11 21:30N 49°22' W 000°15'510.0
2018-Oct-11 21:03N 49°17' W 000°15'0 0.1
2018-Oct-11 21:00N 49°17' W 000°15'0 0.0
2018-Oct-11 20:30N 49°17' W 000°15'0 0.0
2018-Oct-11 20:03N 49°17' W 000°15'0 0.0
2018-Oct-11 20:00N 49°17' W 000°15'0 0.0
2018-Oct-11 19:30N 49°17' W 000°15'2 3.6
2018-Oct-11 19:03N 49°19' W 000°15'116.1
2018-Oct-11 19:00N 49°20' W 000°15'917.8
2018-Oct-11 18:30N 49°28' W 000°19'817.2
2018-Oct-11 18:03N 49°35' W 000°24'117.8
2018-Oct-11 18:00N 49°36' W 000°24'1019.8
2018-Oct-11 17:30N 49°46' W 000°29'919.5
2018-Oct-11 17:03N 49°54' W 000°34'119.1
2018-Oct-11 17:00N 49°54' W 000°35'1019.1
2018-Oct-11 16:30N 50°03' W 000°40'818.9
2018-Oct-11 16:03N 50°11' W 000°45'118.9
2018-Oct-11 16:00N 50°12' W 000°46'1019.6
2018-Oct-11 15:30N 50°22' W 000°51'920.2
2018-Oct-11 15:03N 50°30' W 000°54'117.3
2018-Oct-11 15:00N 50°31' W 000°54'917.9
2018-Oct-11 14:30N 50°39' W 000°59'816.1
2018-Oct-11 14:00N 50°46' W 001°06'2 4.7
2018-Oct-11 13:30N 50°49' W 001°06'0 0.0
2018-Oct-11 13:03N 50°49' W 001°06'0 0.0
2018-Oct-11 13:00N 50°49' W 001°06'0 0.0
2018-Oct-11 12:30N 50°49' W 001°06'0 0.0
2018-Oct-11 12:03N 50°49' W 001°06'0 1.5
2018-Oct-11 12:00N 50°49' W 001°06'5 9.6
2018-Oct-11 11:30N 50°44' W 001°04'920.1
2018-Oct-11 11:03N 50°36' W 000°58'121.1
2018-Oct-11 11:00N 50°35' W 000°58'1020.3
2018-Oct-11 10:30N 50°25' W 000°53'920.4
2018-Oct-11 10:03N 50°17' W 000°48'219.8
2018-Oct-11 09:56N 50°14' W 000°46'920.2
2018-Oct-11 09:30N 50°06' W 000°41'920.4
2018-Oct-11 09:03N 49°58' W 000°36'120.5
2018-Oct-11 09:00N 49°57' W 000°35'1020.3
2018-Oct-11 08:30N 49°47' W 000°30'920.3
2018-Oct-11 08:03N 49°39' W 000°25'120.3
2018-Oct-11 08:00N 49°38' W 000°24'1020.2
2018-Oct-11 07:30N 49°28' W 000°19'919.6
2018-Oct-11 07:03N 49°20' W 000°14'116.0
2018-Oct-11 07:00N 49°19' W 000°15'2 3.8
2018-Oct-11 06:31N 49°17' W 000°15'0 0.0
2018-Oct-11 06:04N 49°17' W 000°15'0 0.0
2018-Oct-11 06:01N 49°17' W 000°15'0 0.0
2018-Oct-11 05:30N 49°17' W 000°15'0 0.0
2018-Oct-11 05:03N 49°17' W 000°15'0 0.0
2018-Oct-11 05:00N 49°17' W 000°15'0 0.0
2018-Oct-11 04:31N 49°17' W 000°15'0 0.0
2018-Oct-11 04:03N 49°17' W 000°15'0 0.0
2018-Oct-11 04:00N 49°17' W 000°15'0 0.0
2018-Oct-11 03:30N 49°17' W 000°15'0 0.0
2018-Oct-11 03:04N 49°17' W 000°15'0 0.0
2018-Oct-11 03:01N 49°17' W 000°15'0 0.0
2018-Oct-11 02:31N 49°17' W 000°15'0 0.0
2018-Oct-11 02:04N 49°17' W 000°15'0 0.0
2018-Oct-11 02:01N 49°17' W 000°15'0 0.0
2018-Oct-11 01:30N 49°17' W 000°15'0 0.0
2018-Oct-11 01:03N 49°17' W 000°15'0 0.1
2018-Oct-11 01:00N 49°17' W 000°15'0 0.0
2018-Oct-11 00:30N 49°17' W 000°15'0 0.0
2018-Oct-11 00:04N 49°17' W 000°15'0 0.0
2018-Oct-11 00:01N 49°17' W 000°15'0 0.0
2018-Oct-10 23:31N 49°17' W 000°15'0 0.0
2018-Oct-10 23:04N 49°17' W 000°15'0 0.0
2018-Oct-10 23:01N 49°17' W 000°15'0 0.0
2018-Oct-10 22:31N 49°17' W 000°15'0 0.0
2018-Oct-10 22:03N 49°17' W 000°15'0 0.0
2018-Oct-10 22:00N 49°17' W 000°15'2 3.3
2018-Oct-10 21:30N 49°19' W 000°15'4 8.5
2018-Oct-10 21:04N 49°23' W 000°14'113.5
2018-Oct-10 21:00N 49°24' W 000°15'816.7
2018-Oct-10 20:30N 49°31' W 000°20'3 7.1
2018-Oct-10 20:03N 49°32' W 000°24'0 2.3
2018-Oct-10 20:00N 49°32' W 000°25'1 2.2
2018-Oct-10 19:30N 49°32' W 000°26'1 1.7
2018-Oct-10 19:04N 49°32' W 000°27'0 1.3
2018-Oct-10 19:01N 49°32' W 000°27'0 1.0
2018-Oct-10 18:30N 49°31' W 000°27'1 1.3
2018-Oct-10 18:03N 49°31' W 000°27'0 1.5
2018-Oct-10 18:00N 49°31' W 000°27'1 1.8
2018-Oct-10 17:31N 49°30' W 000°26'1 2.3
2018-Oct-10 17:03N 49°30' W 000°24'0 2.4
2018-Oct-10 17:00N 49°30' W 000°24'1 2.4
2018-Oct-10 16:30N 49°29' W 000°23'1 2.5
2018-Oct-10 16:03N 49°28' W 000°21'0 2.3
2018-Oct-10 15:57N 49°28' W 000°21'1 2.7
2018-Oct-10 15:30N 49°27' W 000°20'1 2.7
2018-Oct-10 15:03N 49°26' W 000°18'0 2.6
2018-Oct-10 15:00N 49°26' W 000°18'1 2.7
2018-Oct-10 14:27N 49°25' W 000°17'1 2.7
2018-Oct-10 13:57N 49°24' W 000°16'  

Dump ship's entire track history